Waterford, Ohio
Current Conditions -  °F | °C
As of 9:53 PM on Friday 21 Nov 2014 (Local Time) from KPKB Reporting Station
Clear Clear  
Wind Chill: 20°   Ceiling: Unl
Heat Index: 20°   Visibility: 7mi
Dew Point: 11°   Wind: 0mph
Humidity: 68%   Direction: NA
Pressure: 30.48"   Gusts: NA
Location:  39.54°N, 81.64°W
Report Text: KPKB 220253Z AUTO 00000KT 7SM CLR M07/M12 A3048 RMK AO2 SLP335 T10671117 58013
Loading
Personal Weather Stations






























Interactive Weather Map New forecast layout! Learn more

10-Day Weather Forecast

Advertisements
Track Severe Weather on mobile